Historyczne dane pomiarowe

Dodano dane terminowe – wersja testowa.

Dane z okresu 1951-2019

Wersja bazy: 1.34 [2019-03-16, lista zmian], aktualizacja planowana na 2019-04-15

Dane meteo z obszaru Polski uzyskane na podstawie danych udostępnionych przez Instytut Meteorologii i Gospodarki Wodnej – Państwowy Instytut Badawczy.

 

Wybierz Datę:    

       

TemperaturaWilgotnośćWiatrCiśnienieOpadyŚniegCzas trwania zjawisk
 Stacja t tx tn tng RH VA  wxwx mslp ppp RRR   cm mm wxwxwxwxwxwxwx
1961-03-18 10.0 17.3 3.6 1.0 74.5- 3.0 4.0---- 0.0------------
1961-03-19 3.5 9.3 1.5 1.9 70.5- 7.7 4.0---- 0.2------------
1961-03-20 -1.1 3.6 -3.0 -5.2 85.3- 2.3 3.0---- 0.0------------
1961-03-21 0.7 3.9 -2.1 -4.1 94.3- 8.0 4.3---- 2.1------------
1961-03-22 -0.3 2.8 -1.8 -1.2 86.5- 5.3 4.3---- 0.8-- 1---------
1961-03-23 2.3 4.5 -4.1 -7.9 92.3- 7.7 2.7---- 0.0-- 1---------
1961-03-24 6.1 8.6 4.3 3.1 74.5- 5.3 7.0---- 0.4------------
1961-03-25 5.6 9.7 2.7 -0.4 82.3- 5.3 4.7---- 0.6------------
1961-03-26 6.6 11.6 0.2 -1.7 75.5- 7.3 5.3---- 1.3------------
1961-03-27 3.5 8.1 0.7 4.8 75.5- 4.7 7.7---- 0.5------------
1961-03-28 1.2 4.4 -1.6 -2.4 80.3- 6.0 5.0---- 1.0------------
1961-03-29 2.4 4.5 -0.8 -1.7 86.0- 8.0 3.7---- 1.1------------
1961-03-30 6.3 7.5 2.6 2.1 90.0- 8.0 6.0---- 3.3------------
1961-03-31 3.1 7.2 -2.3 3.3 81.0- 7.3 3.3---- 1.4------------
1961-04-01 1.7 4.6 -0.3 -1.4 83.8- 8.0 6.7---- 5.4------------
1961-04-02 2.8 5.8 0.1 -0.7 81.0- 6.0 1.3---- 8.5------------
1961-04-03 5.3 10.9 1.9 0.6 87.0- 5.3 4.3---- 2.0------------
1961-04-04 4.2 9.7 0.2 -1.7 88.8- 5.3 3.0---- 2.4------------
1961-04-05 7.8 12.0 1.2 -0.9 85.5- 7.0 3.0---- 0.0------------
1961-04-06 14.5 22.4 9.0 5.8 75.0- 4.3 2.7---- 0.0------------
1961-04-07 15.5 23.6 7.5 3.6 66.8- 0.7 3.0---- 0.0------------
1961-04-08 10.5 15.2 7.4 6.7 87.5- 7.0 3.0---- 5.3------------
1961-04-09 3.6 8.1 1.8 -1.1 66.8- 4.0 5.0---- 0.0------------
1961-04-10 2.6 7.1 -2.6 -8.1 64.8- 4.0 1.3---- 0.0------------
1961-04-11 6.3 13.3 -1.5 -7.2 49.8- 0.7 2.7---- 0.0------------
1961-04-12 4.7 10.0 -0.7 -4.4 63.0- 1.7 1.3---- 0.0------------
1961-04-13 11.4 17.4 0.6 -4.1 63.8- 7.7 2.0---- 0.0------------
1961-04-14 14.7 22.7 5.3 0.4 64.0- 3.0 1.0---- 0.0------------
1961-04-15 15.6 24.9 7.5 2.7 59.0- 0.0 2.3---- 0.0------------
1961-04-16 15.1 25.0 9.2 4.0 74.0- 4.0 1.0---- 0.6------------
163.7 ms

 

Źródłem pochodzenia danych jest Instytut Meteorologii i Gospodarki Wodnej – Państwowy Instytut Badawczy. Dane Instytutu Meteorologii i Gospodarki Wodnej – Państwowego Instytutu Badawczego zostały przetworzone.

Dane źródłowe można odnaleźć na stronie https://dane.imgw.pl